Time;durP1;ratioP1;P1;durP2;ratioP2;P2;SDS_P1;SDS_P2;PMS_P1;PMS_P2;Temp;Humidity;BMP_temperature;BMP_pressure;BME280_temperature;BME280_humidity;BME280_pressure;Samples;Min_cycle;Max_cycle;Signal;HPM_P1;HPM_P2
2024/01/01 00:00:20;;;;;;;70.10;42.42;;;;;;;5.41;99.37;99918.69;7395434;19;20497;-66
2024/01/01 00:02:48;;;;;;;68.03;44.38;;;;;;;5.41;98.89;99913.47;7397389;19;20018;-66
2024/01/01 00:05:17;;;;;;;47.72;33.22;;;;;;;5.41;99.30;99913.47;7395297;19;20485;-67
2024/01/01 00:07:50;;;;;;;27.63;18.08;;;;;;;5.42;99.07;99915.22;7397036;19;20070;-66
2024/01/01 00:10:19;;;;;;;23.43;17.07;;;;;;;5.41;99.10;99913.47;7396918;19;20003;-67
2024/01/01 00:12:50;;;;;;;21.33;13.73;;;;;;;5.41;99.22;99921.28;7397221;19;20667;-66
2024/01/01 00:15:18;;;;;;;21.30;13.93;;;;;;;5.41;98.84;99919.56;7397758;19;20022;-66
2024/01/01 00:17:47;;;;;;;44.53;31.70;;;;;;;5.41;98.77;99916.97;7395185;19;20022;-67
2024/01/01 00:20:15;;;;;;;28.10;18.02;;;;;;;5.42;98.78;99912.59;7405540;19;20444;-66
2024/01/01 00:22:44;;;;;;;21.25;13.43;;;;;;;5.43;99.45;99909.97;7400629;19;20014;-66
2024/01/01 00:25:12;;;;;;;19.40;11.60;;;;;;;5.42;98.61;99913.50;7394966;19;20011;-66
2024/01/01 00:27:41;;;;;;;18.05;11.32;;;;;;;5.42;98.23;99907.41;7395864;19;20027;-66
2024/01/01 00:30:13;;;;;;;17.13;11.15;;;;;;;5.43;98.51;99909.13;7396346;19;20019;-66
2024/01/01 00:32:42;;;;;;;18.50;11.40;;;;;;;5.42;98.81;99912.59;7396079;19;20355;-66
2024/01/01 00:35:10;;;;;;;17.20;11.35;;;;;;;5.41;98.48;99911.75;7396190;19;20193;-66
2024/01/01 00:37:39;;;;;;;16.17;10.98;;;;;;;5.42;99.37;99917.81;7393811;19;20014;-66
2024/01/01 00:40:21;;;;;;;19.15;11.15;;;;;;;5.42;98.82;99917.81;7391617;19;20027;-66
2024/01/01 00:42:49;;;;;;;18.35;12.07;;;;;;;5.42;99.08;99915.22;7396121;19;20099;-67
2024/01/01 00:45:20;;;;;;;17.55;11.50;;;;;;;5.42;98.69;99916.09;7394528;19;20026;-66
2024/01/01 00:47:49;;;;;;;20.65;12.98;;;;;;;5.42;98.96;99915.22;7396443;19;20033;-66
2024/01/01 00:50:17;;;;;;;20.42;12.93;;;;;;;5.41;98.56;99922.16;7395368;19;20648;-66
2024/01/01 00:52:46;;;;;;;20.20;12.50;;;;;;;5.40;98.32;99923.03;7395346;19;20014;-66
2024/01/01 00:55:14;;;;;;;21.52;13.90;;;;;;;5.39;98.42;99927.38;7395755;19;20035;-67
2024/01/01 00:57:43;;;;;;;22.92;12.93;;;;;;;5.39;98.71;99929.13;7394061;19;20015;-67
2024/01/01 01:00:13;;;;;;;22.05;12.60;;;;;;;5.38;98.93;99923.06;7393520;19;20518;-67
2024/01/01 01:02:44;;;;;;;23.23;13.48;;;;;;;5.36;96.87;99924.81;7394798;19;20492;-67
2024/01/01 01:05:13;;;;;;;21.13;12.90;;;;;;;5.38;98.60;99922.19;7394342;19;20027;-67
2024/01/01 01:07:41;;;;;;;21.23;14.02;;;;;;;5.36;98.33;99924.81;7394707;19;20007;-67
2024/01/01 01:10:11;;;;;;;21.58;12.70;;;;;;;5.38;98.48;99927.41;7394944;19;20024;-67
2024/01/01 01:12:40;;;;;;;22.63;13.98;;;;;;;5.38;98.79;99922.19;7394719;19;20097;-67
2024/01/01 01:15:09;;;;;;;19.10;12.60;;;;;;;5.37;98.31;99916.13;7395144;19;20074;-69
2024/01/01 01:17:37;;;;;;;23.48;12.40;;;;;;;5.38;98.10;99917.88;7395131;19;20497;-68
2024/01/01 01:20:09;;;;;;;18.25;10.70;;;;;;;5.38;98.16;99915.25;7395352;19;20039;-68
2024/01/01 01:22:38;;;;;;;20.38;11.13;;;;;;;5.38;98.54;99915.25;7395525;19;20019;-68
2024/01/01 01:25:07;;;;;;;19.85;9.95;;;;;;;5.38;98.01;99917.88;7393601;19;20015;-66
2024/01/01 01:27:35;;;;;;;14.85;9.75;;;;;;;5.38;98.24;99914.38;7395047;19;20074;-66
2024/01/01 01:30:04;;;;;;;18.77;10.18;;;;;;;5.38;98.34;99904.84;7395022;19;20073;-67
2024/01/01 01:32:32;;;;;;;16.95;9.82;;;;;;;5.39;98.35;99903.09;7393208;19;20010;-67
2024/01/01 01:35:01;;;;;;;14.77;8.93;;;;;;;5.39;97.82;99898.75;7392399;19;20468;-67
2024/01/01 01:37:32;;;;;;;12.70;7.90;;;;;;;5.40;97.75;99902.22;7394790;19;20090;-67
2024/01/01 01:40:00;;;;;;;15.82;8.90;;;;;;;5.42;97.87;99897.00;7394572;19;20014;-67
2024/01/01 01:42:29;;;;;;;18.13;9.40;;;;;;;5.41;97.51;99900.47;7394408;19;20485;-67
2024/01/01 01:44:57;;;;;;;15.98;8.15;;;;;;;5.41;97.57;99885.75;7392559;19;20035;-67
2024/01/01 01:47:27;;;;;;;12.65;8.10;;;;;;;5.42;97.36;99895.28;7394172;19;20027;-67
2024/01/01 01:49:55;;;;;;;14.20;8.32;;;;;;;5.44;97.66;99890.03;7394025;19;20015;-67
2024/01/01 01:52:24;;;;;;;16.38;9.68;;;;;;;5.45;97.32;99894.38;7393975;19;20035;-67
2024/01/01 01:54:57;;;;;;;14.73;8.73;;;;;;;5.45;97.46;99900.41;7391861;19;20477;-67
2024/01/01 01:57:26;;;;;;;14.45;8.70;;;;;;;5.45;97.19;99904.78;7394642;19;20031;-66
2024/01/01 01:59:56;;;;;;;15.98;9.18;;;;;;;5.44;96.51;99900.44;7391851;19;20473;-66
2024/01/01 02:02:26;;;;;;;16.02;9.10;;;;;;;5.45;97.35;99896.97;7393828;19;20497;-67
2024/01/01 02:04:54;;;;;;;17.35;10.35;;;;;;;5.43;97.47;99890.91;7392845;19;20018;-67
2024/01/01 02:07:23;;;;;;;16.33;9.63;;;;;;;5.43;97.43;99890.91;7393983;19;20015;-68
2024/01/01 02:09:51;;;;;;;17.52;10.43;;;;;;;5.39;96.93;99892.69;7393534;19;20017;-68
2024/01/01 02:12:22;;;;;;;15.68;9.20;;;;;;;5.39;97.49;99903.09;7393864;19;20078;-67
2024/01/01 02:14:51;;;;;;;18.65;10.30;;;;;;;5.38;97.51;99896.19;7389590;19;20015;-65
2024/01/01 02:17:19;;;;;;;16.70;10.20;;;;;;;5.36;97.70;99898.81;7392859;19;20070;-65
2024/01/01 02:19:50;;;;;;;22.30;10.95;;;;;;;5.35;97.81;99902.28;7394780;19;20029;-66
2024/01/01 02:22:18;;;;;;;18.95;10.43;;;;;;;5.32;97.93;99897.13;7393030;19;20596;-66
2024/01/01 02:24:49;;;;;;;20.02;10.48;;;;;;;5.31;97.79;99900.63;7398183;19;20018;-65
2024/01/01 02:27:18;;;;;;;46.85;20.23;;;;;;;5.29;97.96;99901.50;7399650;19;20078;-65
2024/01/01 02:29:46;;;;;;;41.65;15.13;;;;;;;5.27;97.70;99901.53;7401238;19;20015;-68
2024/01/01 02:32:15;;;;;;;46.80;16.58;;;;;;;5.27;98.16;99908.47;7401054;19;20090;-66
2024/01/01 02:34:43;;;;;;;53.38;17.27;;;;;;;5.23;97.80;99912.84;7401137;19;20033;-65
2024/01/01 02:37:12;;;;;;;80.03;21.77;;;;;;;5.22;97.46;99905.94;7401688;19;20027;-66
2024/01/01 02:39:40;;;;;;;45.08;16.58;;;;;;;5.18;97.21;99909.44;7402966;19;20074;-69
2024/01/01 02:42:11;;;;;;;43.25;16.45;;;;;;;5.16;97.83;99908.63;7400802;19;20010;-67
2024/01/01 02:44:40;;;;;;;57.75;19.67;;;;;;;5.14;97.80;99907.78;7398590;19;20014;-68
2024/01/01 02:47:08;;;;;;;58.00;19.27;;;;;;;5.11;97.73;99907.81;7398561;19;20024;-69
2024/01/01 02:49:36;;;;;;;92.78;26.13;;;;;;;5.08;97.95;99900.06;7398053;19;20503;-69
2024/01/01 02:52:05;;;;;;;48.50;17.23;;;;;;;5.05;97.50;99898.34;7400487;19;20074;-69
2024/01/01 02:54:34;;;;;;;51.97;18.50;;;;;;;5.02;97.47;99904.44;7398359;19;20010;-69
2024/01/01 02:57:02;;;;;;;51.67;17.95;;;;;;;4.99;98.01;99914.91;7400686;19;20006;-68
2024/01/01 02:59:33;;;;;;;32.13;15.70;;;;;;;4.98;97.64;99907.09;7409624;19;20015;-69
2024/01/01 03:02:02;;;;;;;107.25;31.92;;;;;;;4.95;98.41;99909.75;7417056;19;20011;-69
2024/01/01 03:04:31;;;;;;;41.95;17.73;;;;;;;4.94;98.55;99905.41;7407989;19;20018;-69
2024/01/01 03:07:00;;;;;;;51.13;19.45;;;;;;;4.89;98.26;99903.75;7397495;19;20029;-71
2024/01/01 03:09:28;;;;;;;39.88;15.95;;;;;;;4.88;98.41;99909.81;7397836;19;20017;-69
2024/01/01 03:11:57;;;;;;;41.53;18.35;;;;;;;4.87;98.12;99915.03;7398345;19;20024;-68
2024/01/01 03:14:26;;;;;;;41.80;17.98;;;;;;;4.85;98.15;99911.59;7396822;19;20027;-68
2024/01/01 03:16:57;;;;;;;56.92;21.15;;;;;;;4.80;98.24;99909.06;7396572;19;20016;-66
2024/01/01 03:19:25;;;;;;;40.70;18.77;;;;;;;4.79;98.57;99907.34;7397164;19;20014;-67
2024/01/01 03:21:54;;;;;;;56.42;22.38;;;;;;;4.78;98.55;99902.13;7399122;19;20045;-67
2024/01/01 03:24:23;;;;;;;44.95;19.63;;;;;;;4.75;98.95;99902.19;7397383;19;20010;-67
2024/01/01 03:26:51;;;;;;;30.83;14.10;;;;;;;4.73;98.64;99889.22;7396704;19;20049;-67
2024/01/01 03:29:27;;;;;;;35.72;17.70;;;;;;;4.72;98.90;99890.09;7396643;19;20033;-67
2024/01/01 03:31:58;;;;;;;28.98;16.33;;;;;;;4.71;98.97;99890.94;7399234;19;20022;-67
2024/01/01 03:34:27;;;;;;;32.50;16.15;;;;;;;4.69;98.68;99892.72;7394523;19;20478;-67
2024/01/01 03:36:55;;;;;;;27.23;15.25;;;;;;;4.65;98.64;99886.69;7394677;19;20481;-67
2024/01/01 03:39:23;;;;;;;33.75;18.50;;;;;;;4.63;99.08;99885.00;7396432;19;20020;-67
2024/01/01 03:41:52;;;;;;;26.00;15.60;;;;;;;4.62;98.82;99883.28;7395954;19;20032;-67
2024/01/01 03:44:21;;;;;;;32.13;17.60;;;;;;;4.60;99.06;99888.50;7396154;19;20019;-67
2024/01/01 03:46:47;;;;;;;27.08;15.63;;;;;;;4.60;98.36;99900.59;7396149;19;20014;-66
2024/01/01 03:49:18;;;;;;;24.33;14.40;;;;;;;4.45;98.50;99867.84;7396073;19;20049;-67
2024/01/01 03:51:46;;;;;;;20.15;12.30;;;;;;;4.55;98.77;99883.34;7396357;19;20115;-67
2024/01/01 03:54:15;;;;;;;20.40;13.95;;;;;;;4.53;99.13;99879.88;7395561;19;20484;-67
2024/01/01 03:56:43;;;;;;;22.33;13.68;;;;;;;4.53;98.60;99889.44;7396288;19;20015;-68
2024/01/01 03:59:12;;;;;;;18.65;12.48;;;;;;;4.50;99.09;99887.72;7395779;19;20045;-67
2024/01/01 04:01:40;;;;;;;23.42;13.10;;;;;;;4.50;98.77;99886.84;7395964;19;20014;-68
2024/01/01 04:04:09;;;;;;;19.58;13.18;;;;;;;4.50;99.49;99889.44;7395405;19;20473;-66
2024/01/01 04:06:40;;;;;;;20.73;11.93;;;;;;;4.50;99.56;99892.03;7395536;19;20022;-66
2024/01/01 04:09:08;;;;;;;24.48;12.32;;;;;;;4.50;98.83;99889.44;7395789;19;20015;-66
2024/01/01 04:11:37;;;;;;;20.17;12.00;;;;;;;4.51;99.12;99901.56;7395156;19;20490;-66
2024/01/01 04:14:18;;;;;;;18.45;11.02;;;;;;;4.49;98.74;99898.13;7394575;19;20011;-65
2024/01/01 04:16:46;;;;;;;18.75;11.05;;;;;;;4.53;98.97;99902.41;7395737;19;20015;-66
2024/01/01 04:19:15;;;;;;;19.08;11.05;;;;;;;4.55;98.68;99898.06;7395486;19;20035;-68
2024/01/01 04:21:46;;;;;;;18.88;11.65;;;;;;;4.56;99.59;99899.78;7395007;19;20368;-67
2024/01/01 04:24:14;;;;;;;22.85;12.27;;;;;;;4.58;99.03;99898.03;7394918;19;20415;-67
2024/01/01 04:26:43;;;;;;;20.67;11.05;;;;;;;4.59;99.09;99902.34;7395146;19;20023;-67
2024/01/01 04:29:18;;;;;;;23.35;11.35;;;;;;;4.59;99.26;99897.16;7394739;19;20482;-67
2024/01/01 04:31:47;;;;;;;18.30;10.38;;;;;;;4.60;99.06;99901.47;7394860;19;20027;-67
2024/01/01 04:34:16;;;;;;;20.98;10.75;;;;;;;4.62;99.57;99902.31;7395033;19;20010;-67
2024/01/01 04:36:47;;;;;;;17.90;10.75;;;;;;;4.61;99.27;99897.13;7394587;19;20047;-67
2024/01/01 04:39:15;;;;;;;17.95;11.02;;;;;;;4.63;99.49;99898.00;7396321;19;20024;-68
2024/01/01 04:41:44;;;;;;;18.98;10.65;;;;;;;4.64;99.00;99900.56;7394856;19;20018;-68
2024/01/01 04:44:12;;;;;;;119.90;76.07;;;;;;;4.65;98.96;99902.28;7394316;19;20420;-68
2024/01/01 04:46:41;;;;;;;22.73;13.98;;;;;;;4.66;98.95;99893.63;7393431;19;20018;-68
2024/01/01 04:49:09;;;;;;;17.33;11.20;;;;;;;4.69;99.10;99896.19;7394554;19;20017;-68
2024/01/01 04:51:38;;;;;;;19.00;10.90;;;;;;;4.70;99.12;99891.81;7394499;19;20027;-67
2024/01/01 04:54:09;;;;;;;14.85;9.57;;;;;;;4.74;99.57;99893.53;7394748;19;20019;-68
2024/01/01 04:56:37;;;;;;;18.98;11.30;;;;;;;4.75;98.93;99896.97;7395020;19;20019;-65
2024/01/01 04:59:06;;;;;;;19.63;10.23;;;;;;;4.77;98.92;99887.44;7394272;19;20019;-66
2024/01/01 05:01:35;;;;;;;17.65;9.70;;;;;;;4.79;98.84;99890.84;7394228;19;20010;-67
2024/01/01 05:04:03;;;;;;;18.52;9.20;;;;;;;4.78;98.73;99879.63;7394509;19;20384;-67
2024/01/01 05:06:32;;;;;;;15.93;9.05;;;;;;;4.81;98.57;99879.56;7394271;19;20078;-67
2024/01/01 05:09:00;;;;;;;14.20;8.77;;;;;;;4.82;98.52;99881.28;7393945;19;20031;-67
2024/01/01 05:11:33;;;;;;;15.20;9.40;;;;;;;4.83;98.25;99883.03;7395273;19;20035;-66
2024/01/01 05:14:01;;;;;;;15.20;9.55;;;;;;;4.84;98.33;99889.06;7392592;19;20081;-67
2024/01/01 05:16:32;;;;;;;14.93;8.63;;;;;;;4.85;97.93;99883.00;7394281;19;20074;-66
2024/01/01 05:19:01;;;;;;;15.68;9.80;;;;;;;4.85;98.42;99888.19;7394242;19;20019;-66
2024/01/01 05:21:29;;;;;;;14.73;8.82;;;;;;;4.86;98.28;99893.38;7395297;19;20013;-66
2024/01/01 05:23:57;;;;;;;14.30;8.13;;;;;;;4.87;97.71;99884.69;7393602;19;20039;-67
2024/01/01 05:26:26;;;;;;;13.80;7.80;;;;;;;4.88;97.95;99882.97;7393898;19;20023;-66
2024/01/01 05:28:57;;;;;;;11.52;7.57;;;;;;;4.88;97.95;99875.19;7393306;19;20419;-67
2024/01/01 05:31:25;;;;;;;14.98;7.88;;;;;;;4.89;97.87;99875.16;7393291;19;20023;-66
2024/01/01 05:33:54;;;;;;;11.85;7.80;;;;;;;4.91;97.87;99880.31;7393117;19;20014;-67
2024/01/01 05:36:22;;;;;;;11.80;7.28;;;;;;;4.90;97.57;99878.59;7392863;19;20550;-67
2024/01/01 05:38:51;;;;;;;12.77;8.30;;;;;;;4.91;97.78;99877.72;7393337;19;20018;-67
2024/01/01 05:41:19;;;;;;;13.63;7.60;;;;;;;4.92;97.49;99876.84;7394620;19;20015;-67
2024/01/01 05:43:48;;;;;;;14.60;7.65;;;;;;;4.93;97.33;99875.09;7392623;19;20423;-67
2024/01/01 05:46:19;;;;;;;15.15;8.98;;;;;;;4.93;97.20;99875.09;7393876;19;20082;-66
2024/01/01 05:48:47;;;;;;;21.75;14.57;;;;;;;4.94;97.34;99882.03;7393288;19;20018;-67
2024/01/01 05:51:16;;;;;;;24.10;15.15;;;;;;;4.94;96.96;99884.63;7392899;19;20070;-66
2024/01/01 05:53:45;;;;;;;15.40;11.13;;;;;;;4.84;96.97;99876.06;7392427;19;20070;-67
2024/01/01 05:56:13;;;;;;;20.73;12.18;;;;;;;4.94;96.96;99890.69;7392832;19;20023;-67
2024/01/01 05:58:41;;;;;;;12.98;7.47;;;;;;;4.95;96.77;99892.41;7397251;19;20516;-67
2024/01/01 06:01:10;;;;;;;12.60;8.30;;;;;;;4.96;96.93;99890.69;7399258;19;20010;-67
2024/01/01 06:03:41;;;;;;;10.40;6.32;;;;;;;4.96;96.44;99894.13;7400907;19;20077;-68
2024/01/01 06:06:11;;;;;;;12.77;6.40;;;;;;;4.97;97.13;99901.06;7399704;19;20011;-67
2024/01/01 06:08:40;;;;;;;8.82;5.93;;;;;;;4.96;97.10;99899.31;7399659;19;20014;-67
2024/01/01 06:11:14;;;;;;;9.45;5.43;;;;;;;4.96;96.45;99893.28;7401796;19;20115;-67
2024/01/01 06:13:43;;;;;;;10.32;5.88;;;;;;;4.98;96.68;99897.56;7398800;19;20012;-67
2024/01/01 06:16:13;;;;;;;12.93;6.43;;;;;;;4.97;96.52;99898.44;7398946;19;20517;-67
2024/01/01 06:18:45;;;;;;;8.52;5.20;;;;;;;4.97;96.72;99893.25;7398709;19;20347;-67
2024/01/01 06:21:13;;;;;;;9.55;5.22;;;;;;;4.98;96.88;99896.69;7398551;19;20011;-67
2024/01/01 06:23:45;;;;;;;10.02;5.88;;;;;;;4.97;96.87;99895.84;7400331;19;20041;-67
2024/01/01 06:26:13;;;;;;;10.90;5.82;;;;;;;4.97;96.48;99888.06;7398375;19;20489;-66
2024/01/01 06:28:42;;;;;;;10.77;5.32;;;;;;;4.96;96.62;99886.31;7398685;19;20015;-68
2024/01/01 06:31:11;;;;;;;10.63;5.45;;;;;;;4.96;96.49;99888.06;7398775;19;20018;-67
2024/01/01 06:33:39;;;;;;;10.65;5.18;;;;;;;4.94;96.26;99885.50;7398058;19;20402;-67
2024/01/01 06:36:11;;;;;;;10.35;5.32;;;;;;;4.94;96.65;99888.09;7398219;19;20010;-67
2024/01/01 06:38:40;;;;;;;9.35;4.85;;;;;;;4.87;96.43;99874.31;7400460;19;20024;-67
2024/01/01 06:41:09;;;;;;;12.18;4.97;;;;;;;4.93;96.58;99886.38;7400365;19;20024;-67
2024/01/01 06:43:37;;;;;;;7.65;4.40;;;;;;;4.92;96.71;99884.66;7398215;19;20034;-67
2024/01/01 06:46:07;;;;;;;9.15;4.53;;;;;;;4.92;96.56;99889.84;7397661;19;20498;-67
2024/01/01 06:48:35;;;;;;;11.20;4.72;;;;;;;4.91;96.52;99888.13;7400354;19;20029;-67
2024/01/01 06:51:04;;;;;;;7.03;4.10;;;;;;;4.89;95.91;99897.66;7397444;19;20010;-67
2024/01/01 06:53:35;;;;;;;12.55;4.95;;;;;;;4.88;96.06;99912.41;7399097;19;20011;-67
2024/01/01 06:56:03;;;;;;;10.38;4.35;;;;;;;4.87;95.87;99904.66;7399980;19;20498;-67
2024/01/01 06:58:32;;;;;;;11.82;4.22;;;;;;;4.87;95.90;99907.25;7397859;19;20027;-68
2024/01/01 07:01:02;;;;;;;6.80;3.97;;;;;;;4.87;96.01;99912.44;7397596;19;20083;-66
2024/01/01 07:03:30;;;;;;;9.27;4.85;;;;;;;4.86;96.12;99918.50;7396911;19;20014;-68
2024/01/01 07:05:59;;;;;;;9.95;4.65;;;;;;;4.86;95.62;99913.31;7399194;19;20023;-68
2024/01/01 07:08:36;;;;;;;7.60;3.97;;;;;;;4.85;96.72;99916.78;7397150;19;20431;-68
2024/01/01 07:11:04;;;;;;;8.98;4.35;;;;;;;4.84;96.28;99923.72;7398338;19;20102;-68
2024/01/01 07:13:33;;;;;;;9.82;5.03;;;;;;;4.84;96.66;99918.53;7398579;19;20018;-68
2024/01/01 07:16:02;;;;;;;6.90;3.90;;;;;;;4.83;96.43;99919.41;7399277;19;20019;-68
2024/01/01 07:18:30;;;;;;;9.45;4.18;;;;;;;4.82;96.64;99922.88;7397647;19;20010;-68
2024/01/01 07:21:00;;;;;;;8.63;4.72;;;;;;;4.83;96.93;99924.59;7397071;19;20035;-68
2024/01/01 07:23:30;;;;;;;8.43;4.65;;;;;;;4.85;96.91;99924.59;7396830;19;20014;-67
2024/01/01 07:26:01;;;;;;;6.70;3.92;;;;;;;4.84;96.77;99921.13;7396729;19;20082;-68
2024/01/01 07:28:29;;;;;;;11.10;5.30;;;;;;;4.84;96.78;99915.94;7396445;19;20418;-68
2024/01/01 07:30:59;;;;;;;9.05;5.13;;;;;;;4.87;96.68;99925.44;7398777;19;20010;-68
2024/01/01 07:33:28;;;;;;;10.32;4.60;;;;;;;4.87;96.78;99922.84;7396608;19;20014;-67
2024/01/01 07:35:56;;;;;;;7.47;4.20;;;;;;;4.88;96.92;99919.38;7396237;19;20370;-68
2024/01/01 07:38:25;;;;;;;7.68;4.57;;;;;;;4.88;96.94;99919.38;7398466;19;20031;-67
2024/01/01 07:40:53;;;;;;;10.15;4.72;;;;;;;4.88;97.23;99924.56;7396022;19;20474;-68
2024/01/01 07:43:24;;;;;;;9.80;4.75;;;;;;;4.86;96.34;99921.97;7396657;19;20014;-68
2024/01/01 07:45:53;;;;;;;9.43;4.60;;;;;;;4.86;96.86;99936.69;7396964;19;20070;-68
2024/01/01 07:48:21;;;;;;;8.55;4.93;;;;;;;4.85;96.57;99942.78;7396299;19;20016;-68
2024/01/01 07:50:50;;;;;;;9.15;4.78;;;;;;;4.84;96.99;99944.53;7396543;19;20014;-67
2024/01/01 07:53:18;;;;;;;10.23;5.35;;;;;;;4.84;97.08;99944.53;7395786;19;20023;-68
2024/01/01 07:55:47;;;;;;;9.00;5.38;;;;;;;4.83;97.09;99942.81;7396505;19;20022;-68
2024/01/01 07:58:16;;;;;;;10.57;4.60;;;;;;;4.84;96.79;99952.31;7396521;19;20097;-68
2024/01/01 08:00:47;;;;;;;11.45;5.05;;;;;;;4.84;96.64;99952.31;7395987;19;20010;-68
2024/01/01 08:03:17;;;;;;;9.20;5.00;;;;;;;4.85;97.07;99956.66;7399189;19;20086;-68
2024/01/01 08:05:45;;;;;;;13.15;5.57;;;;;;;4.86;96.79;99960.09;7398988;19;20020;-68
2024/01/01 08:08:14;;;;;;;11.35;4.93;;;;;;;4.86;96.61;99957.50;7396750;19;20343;-68
2024/01/01 08:10:43;;;;;;;10.45;4.53;;;;;;;4.86;96.75;99960.09;7397472;19;20490;-68
2024/01/01 08:13:11;;;;;;;9.68;5.10;;;;;;;4.87;96.65;99956.63;7395699;19;20010;-68
2024/01/01 08:15:40;;;;;;;12.45;5.03;;;;;;;4.87;97.12;99961.81;7395523;19;20498;-67
2024/01/01 08:18:11;;;;;;;10.38;6.18;;;;;;;4.89;97.16;99970.44;7396101;19;20022;-68
2024/01/01 08:20:39;;;;;;;9.35;5.28;;;;;;;4.90;96.78;99974.78;7395372;19;20014;-68
2024/01/01 08:23:08;;;;;;;12.18;5.30;;;;;;;4.92;97.04;99975.63;7394110;19;20502;-68
2024/01/01 08:25:36;;;;;;;9.02;5.72;;;;;;;4.93;97.23;99971.28;7396597;19;20426;-67
2024/01/01 08:28:05;;;;;;;8.48;5.07;;;;;;;4.97;96.88;99971.25;7395145;19;20019;-68
2024/01/01 08:30:33;;;;;;;15.48;5.88;;;;;;;5.00;96.73;99981.59;7396604;19;20580;-68
2024/01/01 08:33:02;;;;;;;9.23;5.50;;;;;;;5.02;96.80;99977.25;7394890;19;20019;-68
2024/01/01 08:35:33;;;;;;;9.32;5.55;;;;;;;5.05;96.49;99973.75;7394472;19;20024;-68
2024/01/01 08:38:01;;;;;;;14.55;5.93;;;;;;;5.09;96.40;99972.81;7395296;19;20015;-68
2024/01/01 08:40:30;;;;;;;9.68;5.55;;;;;;;5.12;96.88;99967.59;7394669;19;20414;-68
2024/01/01 08:42:59;;;;;;;12.23;6.57;;;;;;;5.16;97.01;99960.63;7394591;19;20025;-68
2024/01/01 08:45:27;;;;;;;12.38;6.45;;;;;;;5.18;96.50;99967.53;7394687;19;20031;-67
2024/01/01 08:47:55;;;;;;;11.18;6.47;;;;;;;5.21;96.14;99975.28;7395087;19;20032;-68
2024/01/01 08:50:24;;;;;;;10.23;5.45;;;;;;;5.24;96.50;99971.78;7394566;19;20022;-68
2024/01/01 08:52:55;;;;;;;9.60;5.60;;;;;;;5.28;96.57;99967.41;7394550;19;20014;-69
2024/01/01 08:55:23;;;;;;;11.25;5.70;;;;;;;5.31;96.24;99976.03;7394730;19;20027;-67
2024/01/01 08:57:52;;;;;;;10.10;5.30;;;;;;;5.34;96.68;99978.59;7394187;19;20027;-68
2024/01/01 09:00:21;;;;;;;8.90;4.75;;;;;;;5.37;95.91;99975.97;7394382;19;20018;-67
2024/01/01 09:02:49;;;;;;;9.73;5.97;;;;;;;5.40;96.74;99982.88;7394481;19;20019;-68
2024/01/01 09:05:18;;;;;;;9.30;5.25;;;;;;;5.43;96.71;99976.78;7394017;19;20027;-67
2024/01/01 09:07:47;;;;;;;8.05;5.05;;;;;;;5.46;96.89;99972.38;7393490;19;20018;-67
2024/01/01 09:10:18;;;;;;;8.98;5.68;;;;;;;5.48;96.53;99973.22;7393821;19;20019;-68
2024/01/01 09:12:47;;;;;;;8.20;5.68;;;;;;;5.51;96.42;99978.41;7393796;19;20021;-67
2024/01/01 09:15:15;;;;;;;11.55;5.72;;;;;;;5.54;95.57;99974.88;7393480;19;20096;-67
2024/01/01 09:17:44;;;;;;;9.15;5.00;;;;;;;5.57;95.60;99969.63;7393959;19;20024;-68
2024/01/01 09:20:14;;;;;;;8.27;5.60;;;;;;;5.60;95.63;99968.72;7394990;19;20019;-67
2024/01/01 09:22:42;;;;;;;9.68;6.60;;;;;;;5.62;95.48;99973.03;7394594;19;20018;-67
2024/01/01 09:25:11;;;;;;;8.18;5.35;;;;;;;5.61;95.31;99971.34;7394347;19;20478;-68
2024/01/01 09:27:49;;;;;;;11.18;5.60;;;;;;;5.67;95.45;99971.25;7394612;19;20023;-68
2024/01/01 09:30:17;;;;;;;9.43;5.25;;;;;;;5.70;95.38;99981.59;7393845;19;20047;-67
2024/01/01 09:32:46;;;;;;;10.10;4.88;;;;;;;5.75;95.36;99983.28;7393226;19;20473;-68
2024/01/01 09:35:14;;;;;;;9.30;5.80;;;;;;;5.77;95.46;99977.16;7399381;19;20011;-68
2024/01/01 09:37:43;;;;;;;7.88;5.28;;;;;;;5.76;95.16;99970.22;7399729;19;20079;-68
2024/01/01 09:40:13;;;;;;;8.90;5.18;;;;;;;5.82;95.34;99974.50;7400259;19;20031;-67
2024/01/01 09:42:51;;;;;;;10.55;5.50;;;;;;;5.85;94.52;99977.94;7399856;19;20019;-68
2024/01/01 09:45:19;;;;;;;9.68;4.82;;;;;;;5.90;94.47;99977.00;7400683;19;20018;-68
2024/01/01 09:47:48;;;;;;;7.95;5.43;;;;;;;5.91;94.45;99976.97;7400325;19;20540;-66
2024/01/01 09:50:16;;;;;;;9.18;5.13;;;;;;;5.96;94.06;99980.34;7399311;19;20022;-67
2024/01/01 09:52:45;;;;;;;7.75;4.78;;;;;;;5.99;93.08;99980.34;7399501;19;20014;-67
2024/01/01 09:55:14;;;;;;;13.85;5.82;;;;;;;6.03;93.97;99979.41;7399371;19;20027;-68
2024/01/01 09:57:42;;;;;;;8.65;5.50;;;;;;;6.10;93.67;99984.53;7399405;19;20014;-68
2024/01/01 10:00:24;;;;;;;7.05;4.60;;;;;;;6.15;92.67;99972.28;7401942;19;20037;-67
2024/01/01 10:02:53;;;;;;;10.02;5.15;;;;;;;6.14;93.28;99954.94;7399217;19;20015;-69
2024/01/01 10:05:22;;;;;;;11.07;5.45;;;;;;;6.24;93.24;99963.47;7398725;19;20518;-67
2024/01/01 10:07:50;;;;;;;12.18;6.15;;;;;;;6.29;92.97;99962.53;7398722;19;20074;-68
2024/01/01 10:10:29;;;;;;;14.13;5.85;;;;;;;6.32;92.54;99964.22;7401572;19;20018;-67
2024/01/01 10:13:09;;;;;;;10.43;6.03;;;;;;;6.35;92.22;99969.38;7399577;19;20018;-67
2024/01/01 10:15:42;;;;;;;16.17;9.48;;;;;;;6.38;92.14;99963.25;7397847;19;20018;-68
2024/01/01 10:18:12;;;;;;;17.98;10.40;;;;;;;6.42;93.09;99972.72;7398807;19;20021;-68
2024/01/01 10:20:42;;;;;;;18.48;9.63;;;;;;;6.46;91.66;99974.41;7398615;19;20022;-68
2024/01/01 10:23:35;;;;;;;17.02;11.43;;;;;;;6.48;89.29;99981.31;7398396;19;20014;-68
2024/01/01 10:26:05;;;;;;;20.00;11.13;;;;;;;6.51;91.02;99978.66;7400398;19;20077;-68
2024/01/01 10:28:34;;;;;;;15.82;9.75;;;;;;;6.44;91.00;99952.72;7398462;19;20010;-68
2024/01/01 10:31:12;;;;;;;11.20;5.90;;;;;;;6.43;89.71;99946.66;7398404;19;20014;-68
2024/01/01 10:33:42;;;;;;;14.43;8.68;;;;;;;6.61;91.17;99966.31;7398115;19;20010;-68
2024/01/01 10:36:13;;;;;;;11.57;6.10;;;;;;;6.66;92.16;99966.22;7398856;19;20018;-68
2024/01/01 10:38:43;;;;;;;10.82;4.68;;;;;;;6.73;91.50;99966.97;7398515;19;20038;-68
2024/01/01 10:41:13;;;;;;;9.57;4.80;;;;;;;6.75;91.33;99968.69;7398569;19;20022;-68
2024/01/01 10:43:43;;;;;;;9.20;4.57;;;;;;;6.79;91.35;99967.72;7397541;19;20027;-67
2024/01/01 10:46:15;;;;;;;10.02;5.13;;;;;;;6.83;90.62;99963.31;7400351;19;20368;-67
2024/01/01 10:48:45;;;;;;;7.28;4.43;;;;;;;6.84;89.79;99957.22;7397934;19;20031;-68
2024/01/01 10:51:27;;;;;;;9.10;4.50;;;;;;;6.86;89.96;99958.03;7397958;19;20007;-67
2024/01/01 10:54:32;;;;;;;7.00;4.03;;;;;;;6.84;89.38;99949.41;7397176;19;20031;-68
2024/01/01 10:57:19;;;;;;;8.48;3.90;;;;;;;6.87;89.50;99954.53;7398034;19;20031;-67
2024/01/01 10:59:56;;;;;;;10.50;4.10;;;;;;;6.92;90.08;99963.13;7400527;19;20027;-66
2024/01/01 11:02:29;;;;;;;8.63;4.22;;;;;;;6.95;90.88;99964.81;7397100;19;20510;-66
2024/01/01 11:05:11;;;;;;;11.07;5.40;;;;;;;6.96;89.25;99959.59;7397661;19;20018;-66
2024/01/01 11:07:58;;;;;;;9.23;3.97;;;;;;;6.97;88.71;99968.25;7399610;19;20030;-67
2024/01/01 11:10:37;;;;;;;9.40;4.30;;;;;;;6.98;90.43;99963.00;7397205;19;20018;-67
2024/01/01 11:13:07;;;;;;;7.82;3.20;;;;;;;6.97;90.86;99969.09;7397242;19;20018;-67
2024/01/01 11:15:44;;;;;;;10.68;5.47;;;;;;;6.96;90.64;99969.16;7395962;19;20427;-67
2024/01/01 11:18:21;;;;;;;16.45;5.95;;;;;;;6.95;91.56;99965.69;7399575;19;20003;-67
2024/01/01 11:20:55;;;;;;;7.88;3.42;;;;;;;6.94;91.39;99974.41;7397548;19;20078;-67
2024/01/01 11:23:45;;;;;;;6.40;3.70;;;;;;;6.94;91.11;99973.56;7397858;19;20010;-67
2024/01/01 11:26:35;;;;;;;9.77;4.30;;;;;;;6.93;90.94;99975.28;7400227;19;20493;-66
2024/01/01 11:29:09;;;;;;;8.25;3.45;;;;;;;6.92;91.80;99970.94;7397455;19;20017;-66
2024/01/01 11:31:37;;;;;;;7.82;3.50;;;;;;;6.95;92.01;99972.63;7399628;19;20024;-66
2024/01/01 11:34:10;;;;;;;9.70;3.25;;;;;;;6.96;90.80;99969.16;7396563;19;20017;-66
2024/01/01 11:36:41;;;;;;;6.28;3.00;;;;;;;6.99;90.97;99972.56;7396106;19;20478;-67
2024/01/01 11:39:10;;;;;;;7.45;3.58;;;;;;;6.92;90.73;99957.06;7397073;19;20033;-66
2024/01/01 11:41:38;;;;;;;6.97;3.47;;;;;;;7.03;90.62;99962.94;7396095;19;20347;-66
2024/01/01 11:44:14;;;;;;;9.60;3.33;;;;;;;7.11;90.49;99968.00;7396142;19;20028;-66